createdAt,value
2022-08-26T00:01:46.435Z,19.22
2022-08-26T00:04:13.930Z,19.21
2022-08-26T00:06:42.292Z,19.20
2022-08-26T00:09:10.149Z,19.18
2022-08-26T00:11:37.934Z,19.18
2022-08-26T00:14:05.399Z,19.17
2022-08-26T00:16:32.440Z,19.17
2022-08-26T00:18:59.839Z,19.16
2022-08-26T00:21:26.863Z,19.15
2022-08-26T00:23:54.226Z,19.16
2022-08-26T00:26:21.114Z,19.15
2022-08-26T00:28:48.017Z,19.13
2022-08-26T00:31:14.929Z,19.12
2022-08-26T00:33:42.131Z,19.09
2022-08-26T00:36:14.419Z,19.08
2022-08-26T00:38:48.370Z,19.07
2022-08-26T00:41:17.095Z,19.06
2022-08-26T00:43:47.539Z,19.06
2022-08-26T00:46:22.057Z,19.05
2022-08-26T00:48:52.556Z,19.02
2022-08-26T00:51:24.053Z,19.03
2022-08-26T00:53:56.041Z,19.02
2022-08-26T00:56:40.859Z,19.02
2022-08-26T00:59:12.082Z,19.01
2022-08-26T01:01:39.974Z,18.99
2022-08-26T01:04:07.214Z,18.99
2022-08-26T01:06:34.751Z,18.98
2022-08-26T01:09:01.916Z,18.98
2022-08-26T01:11:28.844Z,18.97
2022-08-26T01:13:59.404Z,18.97
2022-08-26T01:16:26.487Z,18.96
2022-08-26T01:18:59.898Z,18.96
2022-08-26T01:21:32.423Z,18.95
2022-08-26T01:24:00.352Z,18.94
2022-08-26T01:26:36.736Z,18.93
2022-08-26T01:29:06.127Z,18.92
2022-08-26T01:31:39.233Z,18.91
2022-08-26T01:34:26.139Z,18.90
2022-08-26T01:37:17.453Z,18.90
2022-08-26T01:39:49.358Z,18.89
2022-08-26T01:42:19.383Z,18.88
2022-08-26T01:44:51.896Z,18.88
2022-08-26T01:47:21.703Z,18.87
2022-08-26T01:49:51.862Z,18.87
2022-08-26T01:52:28.044Z,18.86
2022-08-26T01:54:56.687Z,18.86
2022-08-26T01:57:24.547Z,18.85
2022-08-26T01:59:54.675Z,18.83
2022-08-26T02:02:23.144Z,18.82
2022-08-26T02:04:57.996Z,18.83
2022-08-26T02:07:26.689Z,18.81
2022-08-26T02:09:54.694Z,18.80
2022-08-26T02:12:21.913Z,18.80
2022-08-26T02:14:53.961Z,18.79
2022-08-26T02:17:26.596Z,18.77
2022-08-26T02:19:53.903Z,18.79
2022-08-26T02:22:24.709Z,18.77
2022-08-26T02:25:21.986Z,18.77
2022-08-26T02:27:50.104Z,18.76
2022-08-26T02:30:23.474Z,18.75
2022-08-26T02:32:51.893Z,18.75
2022-08-26T02:35:20.672Z,18.76
2022-08-26T02:37:49.442Z,18.75
2022-08-26T02:40:19.103Z,18.75
2022-08-26T02:42:46.541Z,18.75
2022-08-26T02:45:13.675Z,18.73
2022-08-26T02:47:43.712Z,18.71
2022-08-26T02:50:11.251Z,18.72
2022-08-26T02:52:38.207Z,18.71
2022-08-26T02:55:05.847Z,18.70
2022-08-26T02:57:32.824Z,18.72
2022-08-26T03:00:01.176Z,18.72
2022-08-26T03:02:29.033Z,18.69
2022-08-26T03:04:57.867Z,18.70
2022-08-26T03:07:27.835Z,18.70
2022-08-26T03:09:54.770Z,18.68
2022-08-26T03:12:21.693Z,18.68
2022-08-26T03:14:48.660Z,18.68
2022-08-26T03:17:16.262Z,18.69
2022-08-26T03:19:43.166Z,18.69
2022-08-26T03:22:11.077Z,18.70
2022-08-26T03:24:38.207Z,18.70
2022-08-26T03:27:07.348Z,18.68
2022-08-26T03:29:52.813Z,18.68
2022-08-26T03:32:21.005Z,18.67
2022-08-26T03:34:48.136Z,18.66
2022-08-26T03:37:15.150Z,18.66
2022-08-26T03:39:42.153Z,18.65
2022-08-26T03:42:09.471Z,18.65
2022-08-26T03:44:37.828Z,18.64
2022-08-26T03:47:08.964Z,18.64
2022-08-26T03:49:36.245Z,18.65
2022-08-26T03:52:04.878Z,18.62
2022-08-26T03:54:33.262Z,18.61
2022-08-26T03:57:00.288Z,18.61
2022-08-26T03:59:27.572Z,18.60
2022-08-26T04:01:55.001Z,18.59
2022-08-26T04:04:22.854Z,18.59
2022-08-26T04:07:00.943Z,18.59
2022-08-26T04:09:28.503Z,18.57
2022-08-26T04:11:56.812Z,18.57
2022-08-26T04:14:25.431Z,18.55
2022-08-26T04:16:53.952Z,18.54
2022-08-26T04:19:22.896Z,18.54
2022-08-26T04:21:54.082Z,18.54
2022-08-26T04:24:23.779Z,18.53
2022-08-26T04:26:51.505Z,18.52
2022-08-26T04:29:25.683Z,18.51
2022-08-26T04:31:55.806Z,18.50
2022-08-26T04:34:25.005Z,18.50
2022-08-26T04:36:56.327Z,18.52
2022-08-26T04:39:23.137Z,18.40
2022-08-26T04:41:51.735Z,18.32
2022-08-26T04:44:21.691Z,18.39
2022-08-26T04:46:48.541Z,18.43
2022-08-26T04:49:15.921Z,18.48
2022-08-26T04:51:44.012Z,18.49
2022-08-26T04:54:11.122Z,18.50
2022-08-26T04:56:40.756Z,18.49
2022-08-26T04:59:17.110Z,18.50
2022-08-26T05:01:48.877Z,18.51
2022-08-26T05:04:18.835Z,18.52
2022-08-26T05:06:47.318Z,18.55
2022-08-26T05:09:15.438Z,18.58
2022-08-26T05:11:42.992Z,18.59
2022-08-26T05:14:09.961Z,18.62
2022-08-26T05:16:40.438Z,18.63
2022-08-26T05:19:08.521Z,18.67
2022-08-26T05:21:35.851Z,18.67
2022-08-26T05:24:03.092Z,18.71
2022-08-26T05:26:31.703Z,18.73
2022-08-26T05:28:58.805Z,18.76
2022-08-26T05:31:31.814Z,18.78
2022-08-26T05:33:59.609Z,18.80
2022-08-26T05:36:32.326Z,18.84
2022-08-26T05:38:59.534Z,18.87
2022-08-26T05:41:34.425Z,18.87
2022-08-26T05:44:06.776Z,18.87
2022-08-26T05:46:34.899Z,18.88
2022-08-26T05:49:03.116Z,18.87
2022-08-26T05:51:30.663Z,18.89
2022-08-26T05:53:58.902Z,18.88
2022-08-26T05:56:27.955Z,18.89
2022-08-26T05:58:56.518Z,18.90
2022-08-26T06:01:27.990Z,18.91
2022-08-26T06:04:01.347Z,18.95
2022-08-26T06:06:34.323Z,18.95
2022-08-26T06:09:04.022Z,18.94
2022-08-26T06:11:32.745Z,18.93
2022-08-26T06:14:03.949Z,18.91
2022-08-26T06:16:33.771Z,18.92
2022-08-26T06:19:03.189Z,18.93
2022-08-26T06:21:33.317Z,18.92
2022-08-26T06:24:22.021Z,18.93
2022-08-26T06:26:56.740Z,18.91
2022-08-26T06:29:26.316Z,18.89
2022-08-26T06:31:54.723Z,18.90
2022-08-26T06:34:26.562Z,18.90
2022-08-26T06:36:58.816Z,18.88
2022-08-26T06:39:26.023Z,18.87
2022-08-26T06:41:53.303Z,18.86
2022-08-26T06:44:20.947Z,18.85
2022-08-26T06:46:50.471Z,18.84
2022-08-26T06:49:26.702Z,18.82
2022-08-26T06:51:58.686Z,18.81
2022-08-26T06:54:27.058Z,18.79
2022-08-26T06:56:54.235Z,18.80
2022-08-26T06:59:22.110Z,18.76
2022-08-26T07:01:49.794Z,18.78
2022-08-26T07:04:20.227Z,18.76
2022-08-26T07:06:52.775Z,18.79
2022-08-26T07:09:22.675Z,18.82
2022-08-26T07:11:49.917Z,18.82
2022-08-26T07:14:19.417Z,18.81
2022-08-26T07:16:49.896Z,18.77
2022-08-26T07:19:30.033Z,18.76
2022-08-26T07:22:03.271Z,18.75
2022-08-26T07:24:31.620Z,18.76
2022-08-26T07:27:07.135Z,18.76
2022-08-26T07:29:36.483Z,18.76
2022-08-26T07:32:05.035Z,18.75
2022-08-26T07:34:33.176Z,18.75
2022-08-26T07:37:01.105Z,18.74
2022-08-26T07:39:31.627Z,18.74
2022-08-26T07:42:00.111Z,18.74
2022-08-26T07:44:27.623Z,18.68
2022-08-26T07:46:54.775Z,18.65
2022-08-26T07:49:27.114Z,18.70
2022-08-26T07:51:55.298Z,18.71
2022-08-26T07:54:27.080Z,18.72
2022-08-26T07:56:55.902Z,18.72
2022-08-26T07:59:23.678Z,18.70
2022-08-26T08:01:51.172Z,18.70
2022-08-26T08:04:26.090Z,18.69
2022-08-26T08:06:54.780Z,18.69
2022-08-26T08:09:24.248Z,18.70
2022-08-26T08:11:53.025Z,18.69
2022-08-26T08:14:22.096Z,18.72
2022-08-26T08:16:54.680Z,18.71
2022-08-26T08:19:23.910Z,18.72
2022-08-26T08:21:55.660Z,18.73
2022-08-26T08:24:22.800Z,18.74
2022-08-26T08:26:50.907Z,18.75
2022-08-26T08:29:18.284Z,18.77
2022-08-26T08:31:58.488Z,18.77
2022-08-26T08:34:29.808Z,18.79
2022-08-26T08:37:01.967Z,18.80
2022-08-26T08:39:33.275Z,18.81
2022-08-26T08:42:07.634Z,18.80
2022-08-26T08:44:43.065Z,18.82
2022-08-26T08:47:30.531Z,18.83
2022-08-26T08:50:27.758Z,18.83
2022-08-26T08:53:23.749Z,18.82
2022-08-26T08:56:13.321Z,18.83
2022-08-26T08:59:06.194Z,18.82
2022-08-26T09:02:21.154Z,18.85
2022-08-26T09:05:16.284Z,18.83
2022-08-26T09:08:14.226Z,18.84
2022-08-26T09:10:49.244Z,18.87
2022-08-26T09:13:24.881Z,18.87
2022-08-26T09:15:59.793Z,18.87
2022-08-26T09:18:45.977Z,18.87
2022-08-26T09:21:17.867Z,18.87
2022-08-26T09:23:49.725Z,18.86
2022-08-26T09:26:18.772Z,18.88
2022-08-26T09:28:57.063Z,18.89
2022-08-26T09:31:33.820Z,18.89
2022-08-26T09:34:25.157Z,18.91
2022-08-26T09:36:55.750Z,18.92
2022-08-26T09:39:35.096Z,18.93
2022-08-26T09:42:07.712Z,18.95
2022-08-26T09:44:57.319Z,18.92
2022-08-26T09:47:39.767Z,18.76
2022-08-26T09:50:28.948Z,18.75
2022-08-26T09:53:16.299Z,18.84
2022-08-26T09:55:49.549Z,18.85
2022-08-26T09:58:39.511Z,18.90
2022-08-26T10:01:30.149Z,18.91
2022-08-26T10:04:20.641Z,18.93
2022-08-26T10:07:08.654Z,18.95
2022-08-26T10:09:45.977Z,18.95
2022-08-26T10:12:23.709Z,18.98
2022-08-26T10:14:59.537Z,18.98
2022-08-26T10:17:40.226Z,18.99
2022-08-26T10:20:24.964Z,19.01
2022-08-26T10:23:01.755Z,19.01
2022-08-26T10:25:59.013Z,19.02
2022-08-26T10:28:27.215Z,19.02
2022-08-26T10:31:07.793Z,19.03
2022-08-26T10:33:34.904Z,19.03
2022-08-26T10:36:30.908Z,19.04
2022-08-26T10:39:03.974Z,19.04
2022-08-26T10:41:35.484Z,19.04
2022-08-26T10:44:05.724Z,19.06
2022-08-26T10:46:49.982Z,19.06
2022-08-26T10:49:19.662Z,19.08
2022-08-26T10:52:00.401Z,19.08
2022-08-26T10:54:28.285Z,19.09
2022-08-26T10:57:14.387Z,19.09
2022-08-26T11:00:31.929Z,19.08
2022-08-26T11:03:31.972Z,19.09
2022-08-26T11:06:29.088Z,19.11
2022-08-26T11:08:57.547Z,19.13
2022-08-26T11:11:48.576Z,19.12
2022-08-26T11:14:28.477Z,19.14
2022-08-26T11:16:59.136Z,19.14
2022-08-26T11:20:01.558Z,19.15
2022-08-26T11:22:29.189Z,19.16
2022-08-26T11:24:56.100Z,19.17
2022-08-26T11:27:26.314Z,19.19
2022-08-26T11:30:04.809Z,19.19
2022-08-26T11:32:34.882Z,19.20
2022-08-26T11:35:06.641Z,19.19
2022-08-26T11:37:57.743Z,19.22
2022-08-26T11:40:35.697Z,19.23
2022-08-26T11:43:09.306Z,19.24
2022-08-26T11:45:47.085Z,19.23
2022-08-26T11:48:18.052Z,19.25
2022-08-26T11:50:59.978Z,19.26
2022-08-26T11:53:27.894Z,19.27
2022-08-26T11:55:59.764Z,19.27
2022-08-26T11:58:28.664Z,19.29
2022-08-26T12:00:55.722Z,19.29
2022-08-26T12:03:31.887Z,19.28
2022-08-26T12:06:00.195Z,19.28
2022-08-26T12:08:34.620Z,19.27
2022-08-26T12:11:10.556Z,19.27
2022-08-26T12:13:40.626Z,19.26
2022-08-26T12:16:13.192Z,19.25
2022-08-26T12:18:42.370Z,19.25
2022-08-26T12:21:24.552Z,19.26
2022-08-26T12:24:00.678Z,19.28
2022-08-26T12:26:37.698Z,19.28
2022-08-26T12:29:27.336Z,19.28
2022-08-26T12:32:18.698Z,19.28
2022-08-26T12:34:48.379Z,19.28
2022-08-26T12:37:18.859Z,19.27
2022-08-26T12:39:49.534Z,19.27
2022-08-26T12:42:19.922Z,19.27
2022-08-26T12:45:00.562Z,19.28
2022-08-26T12:47:42.956Z,19.28
2022-08-26T12:50:19.598Z,19.28
2022-08-26T12:53:13.266Z,19.28
2022-08-26T12:55:50.788Z,19.30
2022-08-26T12:58:32.058Z,19.30
2022-08-26T13:01:05.025Z,19.27
2022-08-26T13:03:35.033Z,19.30
2022-08-26T13:06:23.718Z,19.30
2022-08-26T13:08:56.691Z,19.32
2022-08-26T13:11:25.320Z,19.33
2022-08-26T13:14:21.049Z,19.32
2022-08-26T13:16:51.995Z,19.34
2022-08-26T13:19:25.950Z,19.33
2022-08-26T13:21:54.859Z,19.32
2022-08-26T13:24:25.444Z,19.33
2022-08-26T13:26:52.714Z,19.33
2022-08-26T13:29:20.089Z,19.32
2022-08-26T13:31:48.429Z,19.32
2022-08-26T13:34:19.550Z,19.33
2022-08-26T13:36:47.253Z,19.33
2022-08-26T13:39:14.707Z,19.34
2022-08-26T13:41:42.721Z,19.33
2022-08-26T13:44:10.972Z,19.33
2022-08-26T13:46:38.969Z,19.31
2022-08-26T13:49:06.683Z,19.32
2022-08-26T13:51:34.477Z,19.31
2022-08-26T13:54:01.821Z,19.32
2022-08-26T13:56:32.701Z,19.32
2022-08-26T13:59:02.017Z,19.30
2022-08-26T14:01:34.036Z,19.31
2022-08-26T14:04:03.770Z,19.30
2022-08-26T14:06:31.939Z,19.31
2022-08-26T14:09:02.517Z,19.29
2022-08-26T14:11:54.462Z,19.31
2022-08-26T14:14:25.571Z,19.31
2022-08-26T14:16:59.425Z,19.29
2022-08-26T14:19:31.926Z,19.31
2022-08-26T14:22:03.109Z,19.30
2022-08-26T14:24:32.933Z,19.30
2022-08-26T14:27:02.956Z,19.29
2022-08-26T14:29:32.082Z,19.29
2022-08-26T14:32:08.916Z,19.29
2022-08-26T14:34:38.376Z,19.29
2022-08-26T14:37:08.643Z,19.29
2022-08-26T14:39:39.703Z,19.29
2022-08-26T14:42:10.858Z,19.29
2022-08-26T14:44:43.963Z,19.30
2022-08-26T14:47:14.193Z,19.29
2022-08-26T14:49:45.035Z,19.29
2022-08-26T14:52:17.569Z,19.29
2022-08-26T14:54:46.873Z,19.29
2022-08-26T14:57:17.350Z,19.29
2022-08-26T14:59:50.274Z,19.28
2022-08-26T15:02:30.877Z,19.28
2022-08-26T15:05:02.864Z,19.25
2022-08-26T15:07:33.265Z,19.19
2022-08-26T15:10:01.463Z,19.14
2022-08-26T15:12:28.728Z,19.09
2022-08-26T15:14:56.269Z,19.11
2022-08-26T15:17:25.502Z,19.08
2022-08-26T15:19:58.119Z,19.07
2022-08-26T15:22:29.795Z,19.07
2022-08-26T15:24:58.972Z,19.06
2022-08-26T15:27:26.391Z,19.08
2022-08-26T15:29:54.531Z,19.03
2022-08-26T15:32:23.177Z,19.05
2022-08-26T15:34:51.507Z,19.07
2022-08-26T15:37:19.042Z,19.13
2022-08-26T15:39:47.490Z,19.16
2022-08-26T15:42:17.199Z,19.17
2022-08-26T15:44:46.120Z,19.17
2022-08-26T15:47:13.986Z,19.16
2022-08-26T15:49:45.186Z,19.16
2022-08-26T15:52:12.859Z,19.17
2022-08-26T15:54:41.005Z,19.15
2022-08-26T15:57:11.506Z,19.18
2022-08-26T15:59:40.441Z,19.17
2022-08-26T16:02:10.560Z,19.19
2022-08-26T16:04:39.963Z,19.18
2022-08-26T16:07:07.672Z,19.18
2022-08-26T16:09:34.976Z,19.18
2022-08-26T16:12:02.988Z,19.20
2022-08-26T16:14:31.701Z,19.20
2022-08-26T16:16:59.337Z,19.22
2022-08-26T16:19:26.875Z,19.21
2022-08-26T16:21:54.170Z,19.23
2022-08-26T16:24:25.986Z,19.23
2022-08-26T16:26:57.870Z,19.24
2022-08-26T16:29:25.354Z,19.25
2022-08-26T16:31:54.307Z,19.26
2022-08-26T16:34:22.442Z,19.28
2022-08-26T16:36:49.795Z,19.29
2022-08-26T16:39:17.461Z,19.29
2022-08-26T16:41:45.140Z,19.30
2022-08-26T16:44:13.144Z,19.30
2022-08-26T16:46:41.775Z,19.30
2022-08-26T16:49:09.133Z,19.30
2022-08-26T16:51:37.838Z,19.25
2022-08-26T16:54:07.707Z,19.19
2022-08-26T16:56:36.981Z,19.16
2022-08-26T16:59:07.189Z,19.10
2022-08-26T17:01:35.107Z,19.06
2022-08-26T17:04:03.147Z,19.12
2022-08-26T17:06:31.966Z,19.16
2022-08-26T17:08:59.947Z,19.17
2022-08-26T17:11:27.390Z,19.19
2022-08-26T17:13:54.570Z,19.21
2022-08-26T17:16:26.397Z,19.23
2022-08-26T17:18:58.587Z,19.23
2022-08-26T17:21:27.706Z,19.22
2022-08-26T17:23:55.345Z,19.23
2022-08-26T17:26:22.710Z,19.25
2022-08-26T17:28:51.288Z,19.25
2022-08-26T17:31:20.311Z,19.25
2022-08-26T17:33:54.016Z,19.24
2022-08-26T17:36:21.836Z,19.24
2022-08-26T17:38:49.458Z,19.26
2022-08-26T17:41:19.699Z,19.26
2022-08-26T17:43:46.795Z,19.27
2022-08-26T17:46:13.880Z,19.28
2022-08-26T17:48:41.902Z,19.28
2022-08-26T17:51:15.432Z,19.29
2022-08-26T17:53:43.595Z,19.29
2022-08-26T17:56:13.582Z,19.29
2022-08-26T17:58:48.216Z,19.29
2022-08-26T18:01:18.946Z,19.30
2022-08-26T18:03:46.619Z,19.29
2022-08-26T18:06:14.497Z,19.29
2022-08-26T18:08:42.731Z,19.27
2022-08-26T18:11:17.085Z,19.23
2022-08-26T18:13:47.418Z,19.19
2022-08-26T18:16:17.248Z,19.16
2022-08-26T18:18:44.771Z,19.12
2022-08-26T18:21:14.688Z,19.07
2022-08-26T18:23:42.505Z,19.05
2022-08-26T18:26:09.640Z,19.04
2022-08-26T18:28:39.495Z,19.01
2022-08-26T18:31:09.338Z,19.00
2022-08-26T18:33:36.456Z,19.00
2022-08-26T18:36:03.890Z,19.03
2022-08-26T18:38:31.050Z,18.97
2022-08-26T18:40:58.124Z,18.97
2022-08-26T18:43:25.587Z,18.91
2022-08-26T18:46:03.952Z,18.87
2022-08-26T18:48:31.065Z,18.89
2022-08-26T18:51:00.706Z,18.90
2022-08-26T18:53:29.294Z,18.85
2022-08-26T18:55:57.195Z,18.80
2022-08-26T18:58:24.947Z,18.76
2022-08-26T19:00:53.163Z,18.75
2022-08-26T19:03:20.926Z,18.77
2022-08-26T19:05:52.056Z,18.75
2022-08-26T19:08:19.361Z,18.76
2022-08-26T19:10:47.000Z,18.82
2022-08-26T19:13:17.030Z,18.83
2022-08-26T19:15:49.228Z,18.83
2022-08-26T19:18:16.976Z,18.77
2022-08-26T19:20:46.897Z,18.76
2022-08-26T19:23:33.599Z,18.84
2022-08-26T19:26:04.614Z,18.92
2022-08-26T19:28:33.058Z,18.97
2022-08-26T19:31:01.398Z,19.01
2022-08-26T19:33:32.115Z,19.03
2022-08-26T19:36:01.265Z,19.06
2022-08-26T19:38:31.453Z,19.09
2022-08-26T19:41:01.540Z,19.12
2022-08-26T19:43:32.194Z,19.15
2022-08-26T19:46:00.009Z,19.18
2022-08-26T19:48:27.109Z,19.22
2022-08-26T19:50:54.415Z,19.23
2022-08-26T19:53:28.723Z,19.25
2022-08-26T19:56:04.754Z,19.28
2022-08-26T19:58:33.792Z,19.30
2022-08-26T20:01:01.460Z,19.32
2022-08-26T20:03:29.690Z,19.34
2022-08-26T20:06:00.019Z,19.37
2022-08-26T20:08:29.770Z,19.38
2022-08-26T20:11:00.803Z,19.38
2022-08-26T20:13:30.939Z,19.42
2022-08-26T20:15:59.131Z,19.44
2022-08-26T20:18:45.156Z,19.45
2022-08-26T20:21:30.182Z,19.47
2022-08-26T20:24:05.628Z,19.48
2022-08-26T20:26:39.031Z,19.50
2022-08-26T20:29:08.799Z,19.50
2022-08-26T20:31:37.032Z,19.52
2022-08-26T20:34:12.524Z,19.56
2022-08-26T20:36:43.547Z,19.58
2022-08-26T20:39:12.405Z,19.60
2022-08-26T20:41:42.723Z,19.60
2022-08-26T20:44:12.958Z,19.62
2022-08-26T20:46:45.250Z,19.65
2022-08-26T20:49:13.974Z,19.69
2022-08-26T20:51:49.190Z,19.70
2022-08-26T20:54:17.155Z,19.73
2022-08-26T20:56:44.715Z,19.74
2022-08-26T20:59:12.979Z,19.77
2022-08-26T21:01:42.408Z,19.74
2022-08-26T21:04:24.917Z,19.71
2022-08-26T21:06:53.259Z,19.71
2022-08-26T21:09:25.685Z,19.68
2022-08-26T21:11:53.739Z,19.66
2022-08-26T21:14:25.709Z,19.66
2022-08-26T21:16:54.113Z,19.63
2022-08-26T21:19:22.198Z,19.61
2022-08-26T21:21:49.832Z,19.61
2022-08-26T21:24:17.681Z,19.59
2022-08-26T21:26:45.211Z,19.59
2022-08-26T21:29:13.934Z,19.58
2022-08-26T21:31:46.215Z,19.57
2022-08-26T21:34:16.563Z,19.55
2022-08-26T21:36:44.205Z,19.57
2022-08-26T21:39:12.180Z,19.58
2022-08-26T21:41:41.020Z,19.57
2022-08-26T21:44:09.109Z,19.54
2022-08-26T21:46:37.628Z,19.52
2022-08-26T21:49:07.857Z,19.49
2022-08-26T21:51:44.073Z,19.47
2022-08-26T21:54:13.049Z,19.45
2022-08-26T21:56:44.941Z,19.43
2022-08-26T21:59:13.313Z,19.42
2022-08-26T22:01:40.418Z,19.40
2022-08-26T22:04:09.645Z,19.37
2022-08-26T22:06:48.131Z,19.36
2022-08-26T22:09:18.187Z,19.34
2022-08-26T22:11:46.907Z,19.33
2022-08-26T22:14:14.703Z,19.32
2022-08-26T22:16:41.739Z,19.29
2022-08-26T22:19:17.708Z,19.29
2022-08-26T22:21:45.604Z,19.28
2022-08-26T22:24:12.935Z,19.27
2022-08-26T22:26:40.286Z,19.25
2022-08-26T22:29:07.992Z,19.25
2022-08-26T22:31:38.339Z,19.24
2022-08-26T22:34:11.395Z,19.24
2022-08-26T22:36:43.697Z,19.24
2022-08-26T22:39:12.950Z,19.22
2022-08-26T22:41:40.496Z,19.21
2022-08-26T22:44:08.081Z,19.22
2022-08-26T22:46:37.135Z,19.25
2022-08-26T22:49:05.985Z,19.28
2022-08-26T22:51:33.671Z,19.27
2022-08-26T22:54:01.064Z,19.23
2022-08-26T22:56:28.089Z,19.20
2022-08-26T22:58:55.429Z,19.18
2022-08-26T23:01:22.549Z,19.18
2022-08-26T23:03:49.776Z,19.14
2022-08-26T23:06:17.228Z,19.15
2022-08-26T23:08:46.674Z,19.14
2022-08-26T23:11:15.314Z,19.11
2022-08-26T23:13:42.900Z,19.10
2022-08-26T23:16:12.546Z,19.09
2022-08-26T23:18:40.958Z,19.09
2022-08-26T23:21:08.242Z,19.08
2022-08-26T23:23:35.968Z,19.07
2022-08-26T23:26:06.098Z,19.05
2022-08-26T23:28:33.874Z,19.05
2022-08-26T23:31:00.939Z,19.05
2022-08-26T23:33:48.416Z,19.04
2022-08-26T23:36:18.053Z,19.04
2022-08-26T23:38:52.422Z,19.03
2022-08-26T23:41:22.137Z,19.02
2022-08-26T23:43:49.821Z,19.02
2022-08-26T23:46:16.812Z,19.01
2022-08-26T23:48:44.281Z,19.01
2022-08-26T23:51:32.163Z,19.01
2022-08-26T23:54:00.002Z,19.00
2022-08-26T23:56:27.121Z,18.99
2022-08-26T23:58:54.962Z,18.98
